Time;durP1;ratioP1;P1;durP2;ratioP2;P2;SDS_P1;SDS_P2;PMS_P1;PMS_P2;Temp;Humidity;BMP_temperature;BMP_pressure;BME280_temperature;BME280_humidity;BME280_pressure;Samples;Min_cycle;Max_cycle;Signal;HPM_P1;HPM_P2
2020/12/04 00:00:34;;;;;;;37.17;15.43;;;;;;;-1.36;100.00;94135.63;5080664;28;20630;-70
2020/12/04 00:02:59;;;;;;;42.23;17.67;;;;;;;-1.23;100.00;94141.94;5079474;28;20207;-70
2020/12/04 00:05:25;;;;;;;37.87;16.50;;;;;;;-1.09;100.00;94130.19;5079020;28;20215;-70
2020/12/04 00:07:51;;;;;;;36.27;15.90;;;;;;;-0.97;100.00;94132.31;5079048;28;20229;-70
2020/12/04 00:10:17;;;;;;;34.90;15.63;;;;;;;-0.96;100.00;94126.16;5080308;28;21193;-70
2020/12/04 00:12:44;;;;;;;38.30;16.33;;;;;;;-0.92;100.00;94135.19;5079486;28;20199;-70
2020/12/04 00:15:10;;;;;;;38.20;15.63;;;;;;;-0.96;100.00;94131.31;5078437;28;20240;-70
2020/12/04 00:17:36;;;;;;;34.87;15.87;;;;;;;-0.83;100.00;94117.94;5079855;28;20214;-70
2020/12/04 00:20:02;;;;;;;32.53;15.60;;;;;;;-1.05;100.00;94106.44;5079738;28;20557;-70
2020/12/04 00:22:28;;;;;;;37.03;16.60;;;;;;;-1.51;100.00;94093.28;5079164;28;20206;-70
2020/12/04 00:24:54;;;;;;;33.13;15.07;;;;;;;-1.58;100.00;94086.31;5079489;28;20210;-70
2020/12/04 00:27:20;;;;;;;34.40;14.77;;;;;;;-1.23;100.00;94087.69;5078371;28;20220;-70
2020/12/04 00:29:47;;;;;;;36.13;16.07;;;;;;;-1.10;100.00;94087.22;5078380;28;21052;-70
2020/12/04 00:32:13;;;;;;;32.57;14.50;;;;;;;-1.02;100.00;94095.81;5078996;28;20211;-70
2020/12/04 00:34:40;;;;;;;37.50;15.53;;;;;;;-0.84;100.00;94104.22;5078768;28;20617;-70
2020/12/04 00:37:05;;;;;;;36.00;15.17;;;;;;;-0.85;100.00;94097.44;5078516;28;20196;-70
2020/12/04 00:39:31;;;;;;;38.13;15.90;;;;;;;-0.89;100.00;94090.97;5079156;28;20330;-70
2020/12/04 00:41:58;;;;;;;42.10;16.77;;;;;;;-0.94;100.00;94082.88;5078978;28;20194;-70
2020/12/04 00:44:24;;;;;;;34.87;14.80;;;;;;;-0.92;100.00;94083.50;5078776;28;20692;-70
2020/12/04 00:46:51;;;;;;;35.27;15.63;;;;;;;-1.04;100.00;94082.22;5078194;28;20318;-69
2020/12/04 00:49:17;;;;;;;36.57;15.47;;;;;;;-0.94;100.00;94082.88;5078956;28;20229;-70
2020/12/04 00:51:43;;;;;;;36.37;15.63;;;;;;;-0.80;100.00;94099.50;5078939;28;20210;-70
2020/12/04 00:54:09;;;;;;;36.03;14.50;;;;;;;-0.83;100.00;94089.50;5078523;28;20216;-70
2020/12/04 00:56:35;;;;;;;35.03;15.57;;;;;;;-0.93;100.00;94105.19;5077542;28;20200;-70
2020/12/04 00:59:01;;;;;;;35.07;14.70;;;;;;;-0.86;100.00;94098.38;5078667;28;20637;-70
2020/12/04 01:01:28;;;;;;;32.00;14.60;;;;;;;-0.82;100.00;94091.94;5078620;28;20211;-70
2020/12/04 01:03:55;;;;;;;33.23;15.00;;;;;;;-0.76;100.00;94082.72;5078609;28;20207;-70
2020/12/04 01:06:21;;;;;;;33.20;14.90;;;;;;;-0.90;100.00;94080.78;5077978;28;20221;-70
2020/12/04 01:08:47;;;;;;;36.70;14.63;;;;;;;-1.11;100.00;94070.09;5077922;28;20621;-70
2020/12/04 01:11:13;;;;;;;33.87;14.70;;;;;;;-1.01;100.00;94070.75;5078577;28;20568;-70
2020/12/04 01:13:40;;;;;;;31.83;14.17;;;;;;;-0.94;100.00;94071.72;5078383;28;20867;-70
2020/12/04 01:16:09;;;;;;;33.90;15.13;;;;;;;-1.10;100.00;94069.94;5077207;28;20203;-70
2020/12/04 01:18:35;;;;;;;36.00;15.03;;;;;;;-1.08;100.00;94059.47;5077807;28;20312;-70
2020/12/04 01:21:02;;;;;;;33.17;15.30;;;;;;;-1.14;100.00;94063.47;5078296;28;20203;-70
2020/12/04 01:23:28;;;;;;;34.43;14.77;;;;;;;-1.21;100.00;94057.34;5079053;28;20219;-70
2020/12/04 01:25:54;;;;;;;35.37;14.40;;;;;;;-1.31;100.00;94036.97;5077236;28;20703;-70
2020/12/04 01:28:20;;;;;;;37.77;15.47;;;;;;;-1.26;100.00;94037.31;5077629;28;20231;-70
2020/12/04 01:30:46;;;;;;;32.83;14.00;;;;;;;-1.41;100.00;94021.66;5077909;28;20236;-70
2020/12/04 01:33:12;;;;;;;37.13;15.53;;;;;;;-1.48;100.00;94020.66;5078608;28;20195;-70
2020/12/04 01:35:38;;;;;;;34.93;14.70;;;;;;;-1.36;100.00;94034.06;5077108;28;20288;-70
2020/12/04 01:38:04;;;;;;;32.17;13.57;;;;;;;-1.23;100.00;94039.56;5078083;28;20219;-69
2020/12/04 01:40:33;;;;;;;31.77;15.30;;;;;;;-1.28;100.00;94029.72;5078007;28;20227;-70
2020/12/04 01:42:59;;;;;;;33.53;14.73;;;;;;;-1.19;100.00;94029.56;5077981;28;20200;-70
2020/12/04 01:45:24;;;;;;;39.30;14.80;;;;;;;-0.99;100.00;94020.53;5076774;28;20215;-70
2020/12/04 01:47:51;;;;;;;35.37;14.50;;;;;;;-0.83;100.00;94017.13;5077922;28;20230;-70
2020/12/04 01:50:17;;;;;;;35.17;15.23;;;;;;;-0.97;100.00;94013.44;5077612;28;20204;-70
2020/12/04 01:52:43;;;;;;;33.60;15.27;;;;;;;-1.17;100.00;94011.34;5077457;28;20203;-70
2020/12/04 01:55:10;;;;;;;32.20;14.03;;;;;;;-1.06;100.00;93996.31;5077302;28;20623;-70
2020/12/04 01:57:42;;;;;;;29.50;13.77;;;;;;;-1.54;100.00;93982.59;5077358;28;20230;-70
2020/12/04 02:00:08;;;;;;;31.73;14.40;;;;;;;-1.58;100.00;93983.03;5077256;28;20565;-70
2020/12/04 02:02:35;;;;;;;34.07;14.30;;;;;;;-1.47;100.00;93990.50;5077354;28;20203;-69
2020/12/04 02:05:01;;;;;;;33.33;14.90;;;;;;;-1.26;100.00;93977.91;5076579;28;20625;-69
2020/12/04 02:07:32;;;;;;;34.10;14.30;;;;;;;-1.50;100.00;93976.13;5077120;28;20199;-70
2020/12/04 02:10:06;;;;;;;35.40;15.33;;;;;;;-1.53;100.00;93973.06;5077290;28;20210;-70
2020/12/04 02:12:35;;;;;;;32.73;15.10;;;;;;;-1.50;100.00;93975.31;5077572;28;20207;-70
2020/12/04 02:15:02;;;;;;;33.77;14.93;;;;;;;-1.28;100.00;93969.53;5076452;28;20235;-70
2020/12/04 02:17:31;;;;;;;35.53;14.93;;;;;;;-1.22;100.00;93975.66;5076880;28;20616;-70
2020/12/04 02:19:57;;;;;;;37.30;15.60;;;;;;;-1.32;100.00;93968.22;5077036;28;20231;-70
2020/12/04 02:22:24;;;;;;;36.80;15.37;;;;;;;-1.12;100.00;93965.97;5077459;28;20210;-70
2020/12/04 02:24:51;;;;;;;35.20;15.13;;;;;;;-1.00;100.00;93967.25;5076961;28;20564;-70
2020/12/04 02:27:17;;;;;;;34.17;15.37;;;;;;;-1.02;100.00;93960.63;5076399;28;20208;-70
2020/12/04 02:29:43;;;;;;;31.63;14.27;;;;;;;-0.97;100.00;93956.59;5077247;28;20691;-70
2020/12/04 02:32:10;;;;;;;36.70;14.53;;;;;;;-1.35;100.00;93946.13;5076587;28;20199;-70
2020/12/04 02:34:36;;;;;;;37.80;15.20;;;;;;;-1.19;100.00;93949.47;5076723;28;20346;-70
2020/12/04 02:37:02;;;;;;;39.27;15.40;;;;;;;-1.18;100.00;93950.31;5077593;28;20213;-70
2020/12/04 02:39:29;;;;;;;39.60;15.37;;;;;;;-0.97;100.00;93948.84;5076371;28;20222;-70
2020/12/04 02:41:55;;;;;;;35.87;15.17;;;;;;;-0.84;100.00;93948.31;5076259;28;20207;-70
2020/12/04 02:44:21;;;;;;;33.80;14.03;;;;;;;-1.19;100.00;93933.97;5077158;28;20270;-70
2020/12/04 02:46:47;;;;;;;36.90;15.30;;;;;;;-1.29;100.00;93936.91;5076112;28;20240;-70
2020/12/04 02:49:13;;;;;;;34.17;14.47;;;;;;;-1.10;100.00;93933.00;5076933;28;20241;-70
2020/12/04 02:51:44;;;;;;;36.77;15.50;;;;;;;-1.00;100.00;93930.25;5076257;28;20290;-70
2020/12/04 02:54:09;;;;;;;36.03;15.60;;;;;;;-0.98;100.00;93929.13;5076804;28;20272;-70
2020/12/04 02:56:36;;;;;;;36.90;15.53;;;;;;;-0.83;100.00;93924.09;5075866;28;20204;-69
2020/12/04 02:59:02;;;;;;;38.87;15.27;;;;;;;-0.68;100.00;93922.44;5076454;28;20220;-70
2020/12/04 03:01:28;;;;;;;35.90;15.50;;;;;;;-0.57;100.00;93933.22;5076460;28;20241;-69
2020/12/04 03:03:54;;;;;;;37.77;15.83;;;;;;;-0.60;100.00;93926.63;5074898;28;20203;-70
2020/12/04 03:06:20;;;;;;;37.23;14.87;;;;;;;-0.70;100.00;93932.94;5075840;28;20340;-70
2020/12/04 03:08:46;;;;;;;33.17;14.57;;;;;;;-0.86;100.00;93930.38;5076630;28;20238;-70
2020/12/04 03:11:12;;;;;;;35.27;14.97;;;;;;;-1.25;100.00;93933.84;5076770;28;20663;-70
2020/12/04 03:13:40;;;;;;;33.53;14.77;;;;;;;-1.08;100.00;93938.81;5076494;28;20212;-70
2020/12/04 03:16:05;;;;;;;33.93;14.03;;;;;;;-1.24;100.00;93919.16;5075683;28;20308;-70
2020/12/04 03:18:31;;;;;;;36.63;14.73;;;;;;;-0.95;100.00;93935.75;5076461;28;20282;-70
2020/12/04 03:20:57;;;;;;;36.20;15.17;;;;;;;-0.97;100.00;93932.50;5076749;28;20203;-70
2020/12/04 03:23:23;;;;;;;39.00;16.37;;;;;;;-0.82;100.00;93910.19;5076718;28;20223;-70
2020/12/04 03:25:49;;;;;;;38.10;15.60;;;;;;;-0.76;100.00;93918.09;5075284;28;20211;-70
2020/12/04 03:28:15;;;;;;;37.33;15.00;;;;;;;-0.67;100.00;93906.75;5076462;28;20232;-70
2020/12/04 03:30:42;;;;;;;31.17;14.07;;;;;;;-0.60;100.00;93902.50;5076518;28;20674;-70
2020/12/04 03:33:07;;;;;;;33.27;15.07;;;;;;;-0.65;100.00;93897.03;5076490;28;20257;-70
2020/12/04 03:35:33;;;;;;;37.37;15.07;;;;;;;-0.94;100.00;93901.16;5075265;28;20227;-70
2020/12/04 03:37:59;;;;;;;33.07;15.27;;;;;;;-1.26;100.00;93900.41;5076478;28;20585;-69
2020/12/04 03:40:25;;;;;;;34.63;14.47;;;;;;;-1.10;100.00;93894.25;5076051;28;20214;-70
2020/12/04 03:42:51;;;;;;;36.80;15.80;;;;;;;-1.04;100.00;93893.59;5076379;28;20213;-69
2020/12/04 03:45:17;;;;;;;34.13;14.70;;;;;;;-0.99;100.00;93895.72;5076260;28;20949;-70
2020/12/04 03:47:44;;;;;;;32.73;14.27;;;;;;;-1.13;100.00;93881.66;5075904;28;20213;-70
2020/12/04 03:50:09;;;;;;;33.50;15.37;;;;;;;-1.00;100.00;93889.72;5076166;28;20992;-70
2020/12/04 03:52:35;;;;;;;32.47;13.97;;;;;;;-1.06;100.00;93887.81;5076479;28;20207;-69
2020/12/04 03:55:01;;;;;;;32.70;15.17;;;;;;;-1.21;100.00;93894.59;5075559;28;20220;-69
2020/12/04 03:57:27;;;;;;;35.00;15.37;;;;;;;-1.01;100.00;93889.88;5076188;28;20218;-70
2020/12/04 03:59:53;;;;;;;34.27;15.03;;;;;;;-1.00;100.00;93887.13;5075478;28;20216;-69
2020/12/04 04:02:19;;;;;;;36.57;16.13;;;;;;;-0.94;100.00;93881.31;5077012;28;20208;-69
2020/12/04 04:04:46;;;;;;;37.37;15.60;;;;;;;-0.89;100.00;93879.03;5078643;28;20195;-70
2020/12/04 04:07:12;;;;;;;36.13;15.60;;;;;;;-0.83;100.00;93880.94;5078635;28;20692;-69
2020/12/04 04:09:38;;;;;;;39.60;15.67;;;;;;;-1.18;100.00;93880.56;5079518;28;20224;-69
2020/12/04 04:12:04;;;;;;;34.97;15.87;;;;;;;-1.12;100.00;93878.13;5079197;28;20203;-70
2020/12/04 04:14:30;;;;;;;37.27;16.00;;;;;;;-0.96;100.00;93865.16;5079581;28;20232;-70
2020/12/04 04:16:56;;;;;;;40.90;15.73;;;;;;;-1.21;100.00;93865.38;5079182;28;20212;-70
2020/12/04 04:19:22;;;;;;;38.67;15.47;;;;;;;-1.19;100.00;93872.00;5079457;28;20230;-70
2020/12/04 04:21:49;;;;;;;38.30;17.13;;;;;;;-1.46;100.00;93870.75;5079329;28;20207;-69
2020/12/04 04:24:15;;;;;;;35.27;15.60;;;;;;;-1.22;100.00;93867.16;5079232;28;20200;-69
2020/12/04 04:26:41;;;;;;;39.70;16.40;;;;;;;-1.23;100.00;93865.53;5078687;28;20219;-69
2020/12/04 04:29:07;;;;;;;37.87;16.13;;;;;;;-1.25;100.00;93866.69;5079049;28;20246;-69
2020/12/04 04:31:33;;;;;;;38.77;15.43;;;;;;;-1.24;100.00;93868.28;5079133;28;20203;-69
2020/12/04 04:33:59;;;;;;;38.50;16.30;;;;;;;-1.23;100.00;93871.66;5078954;28;20201;-69
2020/12/04 04:36:25;;;;;;;31.93;15.60;;;;;;;-1.11;100.00;93877.16;5078272;28;20231;-68
2020/12/04 04:38:51;;;;;;;35.80;15.33;;;;;;;-1.01;100.00;93877.75;5078741;28;20220;-69
2020/12/04 04:41:17;;;;;;;37.67;15.40;;;;;;;-0.89;100.00;93876.47;5079209;28;20211;-69
2020/12/04 04:43:43;;;;;;;34.70;15.87;;;;;;;-0.93;100.00;93882.94;5079238;28;20214;-69
2020/12/04 04:46:17;;;;;;;42.23;16.90;;;;;;;-1.00;100.00;93892.31;5077901;28;20307;-69
2020/12/04 04:48:48;;;;;;;38.07;15.93;;;;;;;-0.81;100.00;93893.72;5079044;28;20223;-69
2020/12/04 04:51:15;;;;;;;36.97;15.47;;;;;;;-0.73;100.00;93897.06;5079180;28;20209;-69
2020/12/04 04:53:44;;;;;;;33.97;15.20;;;;;;;-0.74;100.00;93902.41;5078496;28;21263;-69
2020/12/04 04:56:11;;;;;;;33.90;14.73;;;;;;;-0.72;100.00;93900.47;5078322;28;20220;-69
2020/12/04 04:58:36;;;;;;;33.47;15.03;;;;;;;-0.63;100.00;93892.53;5078360;28;20223;-69
2020/12/04 05:01:02;;;;;;;38.67;15.70;;;;;;;-0.73;100.00;93896.28;5078761;28;20575;-69
2020/12/04 05:03:28;;;;;;;39.20;16.97;;;;;;;-0.62;100.00;93907.06;5078402;28;20203;-70
2020/12/04 05:05:54;;;;;;;39.53;16.67;;;;;;;-0.61;100.00;93904.31;5079113;28;20207;-69
2020/12/04 05:08:21;;;;;;;36.47;16.13;;;;;;;-0.58;100.00;93888.44;5078096;28;20230;-69
2020/12/04 05:10:48;;;;;;;35.17;15.93;;;;;;;-0.72;100.00;93884.97;5078158;28;20211;-69
2020/12/04 05:13:19;;;;;;;37.93;15.27;;;;;;;-0.74;100.00;93900.63;5079120;28;20890;-69
2020/12/04 05:15:45;;;;;;;33.47;15.10;;;;;;;-0.79;100.00;93899.50;5077182;28;20710;-69
2020/12/04 05:18:12;;;;;;;34.80;15.90;;;;;;;-0.72;100.00;93896.09;5078129;28;20308;-69
2020/12/04 05:20:40;;;;;;;38.70;16.80;;;;;;;-0.88;100.00;93906.50;5078171;28;20215;-69
2020/12/04 05:23:07;;;;;;;39.43;16.03;;;;;;;-1.04;100.00;93901.34;5078414;28;21041;-69
2020/12/04 05:25:35;;;;;;;38.47;16.10;;;;;;;-0.90;100.00;93908.44;5077412;28;20218;-69
2020/12/04 05:28:12;;;;;;;35.80;15.47;;;;;;;-0.97;100.00;93911.84;5078270;28;20226;-69
2020/12/04 05:30:40;;;;;;;41.83;16.33;;;;;;;-0.82;100.00;93921.34;5077809;28;20206;-70
2020/12/04 05:33:07;;;;;;;34.97;16.83;;;;;;;-0.74;100.00;93921.31;5077876;28;20208;-70
2020/12/04 05:35:33;;;;;;;33.40;15.40;;;;;;;-1.03;100.00;93892.63;5077751;28;20223;-70
2020/12/04 05:38:14;;;;;;;37.40;15.90;;;;;;;-1.14;100.00;93874.88;5077743;28;20221;-70
2020/12/04 05:40:42;;;;;;;39.07;16.43;;;;;;;-1.49;100.00;93891.72;5077721;28;20824;-70
2020/12/04 05:43:09;;;;;;;44.13;16.93;;;;;;;-1.36;100.00;93889.44;5077815;28;20278;-70
2020/12/04 05:45:35;;;;;;;40.20;16.83;;;;;;;-1.37;100.00;93908.53;5077433;28;20211;-70
2020/12/04 05:48:01;;;;;;;41.93;17.83;;;;;;;-1.38;100.00;93896.56;5077404;28;20223;-70
2020/12/04 05:50:28;;;;;;;41.10;17.57;;;;;;;-1.19;100.00;93908.16;5077595;28;20220;-70
2020/12/04 05:52:54;;;;;;;38.80;15.80;;;;;;;-1.26;100.00;93901.25;5077954;28;20211;-70
2020/12/04 05:55:20;;;;;;;36.47;15.83;;;;;;;-1.27;100.00;93894.47;5076740;28;20274;-70
2020/12/04 05:57:50;;;;;;;44.80;18.27;;;;;;;-1.36;100.00;93897.19;5077318;28;20272;-70
2020/12/04 06:00:17;;;;;;;46.20;17.93;;;;;;;-1.58;100.00;93866.88;5077916;28;20561;-70
2020/12/04 06:02:43;;;;;;;48.13;18.03;;;;;;;-1.43;100.00;93853.16;5077521;28;20200;-70
2020/12/04 06:05:11;;;;;;;44.27;18.50;;;;;;;-1.80;100.00;93870.91;5076567;28;20236;-70
2020/12/04 06:07:38;;;;;;;43.67;17.90;;;;;;;-1.67;100.00;93860.09;5077906;28;20211;-70
2020/12/04 06:10:04;;;;;;;41.23;16.60;;;;;;;-1.45;100.00;93856.84;5077669;28;20203;-71
2020/12/04 06:12:31;;;;;;;36.97;14.87;;;;;;;-1.51;100.00;93829.13;5076707;28;20207;-70
2020/12/04 06:15:21;;;;;;;46.17;18.77;;;;;;;-1.42;100.00;93838.47;5076963;28;20220;-70
2020/12/04 06:17:48;;;;;;;40.13;16.53;;;;;;;-1.39;100.00;93884.63;5077768;28;20203;-70
2020/12/04 06:20:19;;;;;;;42.27;17.13;;;;;;;-1.65;100.00;93861.56;5077018;28;20228;-70
2020/12/04 06:23:04;;;;;;;45.43;18.17;;;;;;;-1.41;100.00;93860.72;5077164;28;20808;-70
2020/12/04 06:25:55;;;;;;;35.67;14.80;;;;;;;-1.88;100.00;93851.22;5076517;28;20258;-70
2020/12/04 06:28:22;;;;;;;55.47;19.57;;;;;;;-1.68;100.00;93868.81;5076586;28;20292;-70
2020/12/04 06:30:58;;;;;;;51.73;18.03;;;;;;;-1.92;100.00;93849.94;5076991;28;20247;-70
2020/12/04 06:33:36;;;;;;;57.47;20.53;;;;;;;-1.91;100.00;93857.50;5077058;28;20225;-70
2020/12/04 06:36:04;;;;;;;51.50;20.83;;;;;;;-1.89;100.00;93855.59;5076391;28;20231;-70
2020/12/04 06:38:53;;;;;;;55.27;21.67;;;;;;;-1.80;100.00;93857.22;5077011;28;20224;-70
2020/12/04 06:41:27;;;;;;;65.90;20.80;;;;;;;-1.82;100.00;93861.72;5077128;28;20215;-70
2020/12/04 06:43:58;;;;;;;54.07;21.13;;;;;;;-1.96;100.00;93854.63;5076978;28;20207;-71
2020/12/04 06:46:32;;;;;;;57.47;21.47;;;;;;;-1.88;100.00;93867.53;5076059;28;20204;-72
2020/12/04 06:49:11;;;;;;;51.10;19.47;;;;;;;-1.90;100.00;93853.97;5076815;28;20326;-71
2020/12/04 06:51:40;;;;;;;68.03;23.27;;;;;;;-1.81;100.00;93859.00;5076847;28;21146;-71
2020/12/04 06:54:06;;;;;;;63.20;21.50;;;;;;;-1.81;100.00;93868.50;5076585;28;20199;-72
2020/12/04 06:56:32;;;;;;;64.47;22.27;;;;;;;-1.75;100.00;93873.00;5076040;28;20227;-72
2020/12/04 06:58:58;;;;;;;56.30;20.77;;;;;;;-1.72;100.00;93876.09;5076874;28;20713;-71
2020/12/04 07:01:24;;;;;;;60.43;21.00;;;;;;;-1.84;100.00;93873.19;5076595;28;20208;-71
2020/12/04 07:03:55;;;;;;;62.00;23.00;;;;;;;-1.61;100.00;93880.13;5076745;28;20279;-71
2020/12/04 07:06:22;;;;;;;61.40;22.10;;;;;;;-1.75;100.00;93875.59;5075865;28;20939;-71
2020/12/04 07:08:56;;;;;;;59.33;21.33;;;;;;;-1.69;100.00;93882.72;5076464;28;20259;-71
2020/12/04 07:11:24;;;;;;;58.27;22.73;;;;;;;-1.60;100.00;93879.16;5076195;28;20211;-72
2020/12/04 07:13:50;;;;;;;58.17;22.70;;;;;;;-1.56;100.00;93875.28;5076701;28;20233;-71
2020/12/04 07:16:16;;;;;;;64.10;22.17;;;;;;;-1.47;100.00;93871.72;5076212;28;20216;-71
2020/12/04 07:18:42;;;;;;;53.93;21.37;;;;;;;-1.45;100.00;93885.25;5076558;28;20224;-71
2020/12/04 07:21:08;;;;;;;55.63;20.50;;;;;;;-1.43;100.00;93888.50;5076775;28;20210;-72
2020/12/04 07:23:35;;;;;;;59.43;21.87;;;;;;;-1.32;100.00;93898.47;5076302;28;21098;-71
2020/12/04 07:26:03;;;;;;;56.30;21.00;;;;;;;-1.57;100.00;93889.16;5075937;28;20218;-71
2020/12/04 07:28:31;;;;;;;54.43;21.47;;;;;;;-1.35;100.00;93911.72;5076436;28;20236;-71
2020/12/04 07:30:57;;;;;;;53.10;19.90;;;;;;;-1.52;100.00;93895.44;5076522;28;20215;-71
2020/12/04 07:33:23;;;;;;;57.27;22.63;;;;;;;-1.39;100.00;93905.28;5076469;28;20208;-71
2020/12/04 07:35:49;;;;;;;55.17;20.87;;;;;;;-1.27;100.00;93902.22;5075694;28;21155;-72
2020/12/04 07:38:14;;;;;;;51.23;20.13;;;;;;;-1.46;100.00;93894.78;5078101;28;20212;-72
2020/12/04 07:40:42;;;;;;;50.33;19.90;;;;;;;-1.40;100.00;93891.56;5080187;28;20208;-71
2020/12/04 07:43:12;;;;;;;62.17;22.23;;;;;;;-1.32;100.00;93883.81;5080146;28;20550;-72
2020/12/04 07:45:38;;;;;;;53.40;20.47;;;;;;;-1.51;100.00;93870.44;5079610;28;20200;-69
2020/12/04 07:48:06;;;;;;;56.97;21.43;;;;;;;-1.54;100.00;93865.56;5079827;28;20850;-68
2020/12/04 07:50:33;;;;;;;47.50;19.93;;;;;;;-1.52;100.00;93868.81;5080294;28;20212;-70
2020/12/04 07:52:59;;;;;;;53.03;21.00;;;;;;;-1.37;100.00;93872.38;5080007;28;20246;-70
2020/12/04 07:55:33;;;;;;;60.20;22.50;;;;;;;-1.27;100.00;93872.97;5078763;28;20745;-69
2020/12/04 07:58:03;;;;;;;63.10;22.07;;;;;;;-1.20;100.00;93867.81;5080171;28;20227;-72
2020/12/04 08:00:31;;;;;;;56.77;21.17;;;;;;;-1.18;100.00;93865.06;5080267;28;20208;-72
2020/12/04 08:03:01;;;;;;;51.67;19.50;;;;;;;-1.36;100.00;93866.22;5079316;28;20227;-71
2020/12/04 08:05:27;;;;;;;63.30;23.20;;;;;;;-1.11;100.00;93856.50;5078551;28;20203;-71
2020/12/04 08:07:54;;;;;;;62.40;23.53;;;;;;;-1.28;100.00;93869.59;5080547;28;20224;-71
2020/12/04 08:10:21;;;;;;;60.53;22.73;;;;;;;-1.29;100.00;93849.91;5079848;28;20343;-71
2020/12/04 08:12:49;;;;;;;57.50;21.50;;;;;;;-1.14;100.00;93837.94;5078437;28;20693;-71
2020/12/04 08:15:17;;;;;;;53.10;21.20;;;;;;;-1.38;100.00;93814.72;5078651;28;20235;-71
2020/12/04 08:17:44;;;;;;;60.17;20.63;;;;;;;-1.43;100.00;93811.03;5079691;28;20230;-70
2020/12/04 08:20:15;;;;;;;60.60;21.87;;;;;;;-1.25;100.00;93829.72;5079704;28;20204;-71
2020/12/04 08:22:41;;;;;;;59.20;22.30;;;;;;;-1.09;100.00;93844.19;5079696;28;20207;-71
2020/12/04 08:25:07;;;;;;;54.87;21.50;;;;;;;-1.16;100.00;93835.50;5078619;28;20196;-71
2020/12/04 08:27:40;;;;;;;61.43;22.63;;;;;;;-1.02;100.00;93844.34;5078685;28;20234;-71
2020/12/04 08:30:12;;;;;;;52.13;18.53;;;;;;;-1.08;100.00;93826.94;5079154;28;20214;-72
2020/12/04 08:32:38;;;;;;;51.50;20.27;;;;;;;-1.08;100.00;93838.06;5079408;28;20202;-71
2020/12/04 08:35:11;;;;;;;56.63;20.43;;;;;;;-1.14;100.00;93843.88;5078363;28;20238;-71
2020/12/04 08:37:38;;;;;;;66.77;22.17;;;;;;;-1.15;100.00;93831.16;5079379;28;20203;-71
2020/12/04 08:40:04;;;;;;;55.50;20.57;;;;;;;-1.02;100.00;93840.00;5079466;28;20282;-71
2020/12/04 08:42:32;;;;;;;46.97;16.67;;;;;;;-0.44;100.00;93830.84;5078677;28;20214;-71
2020/12/04 08:45:07;;;;;;;53.33;19.73;;;;;;;1.55;100.00;93816.88;5078626;28;20192;-70
2020/12/04 08:47:36;;;;;;;49.47;19.53;;;;;;;1.70;100.00;93816.88;5079393;28;20202;-72
2020/12/04 08:50:12;;;;;;;48.73;18.60;;;;;;;0.57;100.00;93823.47;5078220;28;20231;-71
2020/12/04 08:52:47;;;;;;;54.17;20.80;;;;;;;0.24;100.00;93832.53;5078416;28;20217;-72
2020/12/04 08:55:16;;;;;;;50.33;19.67;;;;;;;-0.35;100.00;93845.34;5078229;28;20221;-71
2020/12/04 08:57:43;;;;;;;59.17;21.93;;;;;;;-0.48;100.00;93842.50;5078394;28;20991;-72
2020/12/04 09:00:11;;;;;;;55.27;21.10;;;;;;;-0.46;100.00;93834.56;5078879;28;20293;-72
2020/12/04 09:02:38;;;;;;;52.80;20.50;;;;;;;-0.85;100.00;93827.81;5078254;28;20263;-71
2020/12/04 09:05:06;;;;;;;48.27;19.97;;;;;;;-0.53;100.00;93828.50;5077854;28;20305;-70
2020/12/04 09:07:33;;;;;;;58.73;20.67;;;;;;;-0.36;100.00;93814.47;5078289;28;20204;-70
2020/12/04 09:09:59;;;;;;;53.97;21.00;;;;;;;-0.30;100.00;93812.03;5079064;28;20196;-71
2020/12/04 09:12:25;;;;;;;55.93;21.43;;;;;;;-0.30;100.00;93809.44;5078352;28;21087;-72
2020/12/04 09:14:52;;;;;;;49.03;19.67;;;;;;;-0.55;100.00;93809.72;5078210;28;20253;-71
2020/12/04 09:17:18;;;;;;;53.23;20.03;;;;;;;-0.63;100.00;93812.38;5077635;28;20202;-71
2020/12/04 09:19:45;;;;;;;57.03;20.97;;;;;;;-0.33;100.00;93808.97;5078896;28;20238;-71
2020/12/04 09:22:12;;;;;;;49.07;20.90;;;;;;;-0.57;100.00;93816.88;5078267;28;20532;-71
2020/12/04 09:24:38;;;;;;;50.80;20.43;;;;;;;-0.71;100.00;93804.66;5077693;28;20226;-70
2020/12/04 09:27:04;;;;;;;59.17;21.83;;;;;;;-0.58;100.00;93799.75;5077405;28;20202;-71
2020/12/04 09:29:30;;;;;;;56.13;22.10;;;;;;;-0.41;100.00;93804.66;5078389;28;20236;-71
2020/12/04 09:31:56;;;;;;;59.10;21.47;;;;;;;-0.41;100.00;93806.44;5077355;28;20261;-71
2020/12/04 09:34:22;;;;;;;66.00;23.10;;;;;;;-0.24;100.00;93813.09;5078052;28;20675;-70
2020/12/04 09:36:51;;;;;;;56.17;21.23;;;;;;;-0.12;100.00;93809.16;5076830;28;20698;-70
2020/12/04 09:39:18;;;;;;;58.50;22.00;;;;;;;0.01;100.00;93808.44;5077632;28;20231;-71
2020/12/04 09:41:45;;;;;;;54.03;20.83;;;;;;;-0.14;100.00;93790.41;5078173;28;21199;-71
2020/12/04 09:44:11;;;;;;;55.10;21.27;;;;;;;-0.01;100.00;93797.44;5078188;28;20201;-71
2020/12/04 09:46:37;;;;;;;54.60;21.93;;;;;;;0.38;100.00;93789.50;5076530;28;20203;-72
2020/12/04 09:49:03;;;;;;;56.50;21.30;;;;;;;0.29;100.00;93791.34;5077783;28;20312;-71
2020/12/04 09:51:29;;;;;;;49.23;18.97;;;;;;;0.03;100.00;93790.91;5077986;28;20202;-71
2020/12/04 09:53:55;;;;;;;52.53;22.43;;;;;;;0.01;100.00;93772.19;5077384;28;20207;-71
2020/12/04 09:56:22;;;;;;;56.47;22.37;;;;;;;-0.46;100.00;93775.09;5076812;28;20234;-71
2020/12/04 09:58:49;;;;;;;53.13;21.17;;;;;;;-0.38;100.00;93772.44;5077515;28;20250;-70
2020/12/04 10:01:16;;;;;;;58.13;21.47;;;;;;;-0.33;100.00;93767.56;5077261;28;20208;-71
2020/12/04 10:03:43;;;;;;;53.27;20.50;;;;;;;-0.38;100.00;93775.03;5076812;28;20207;-71
2020/12/04 10:06:09;;;;;;;55.03;21.50;;;;;;;-0.51;100.00;93760.09;5077013;28;20202;-71
2020/12/04 10:08:35;;;;;;;57.77;21.70;;;;;;;-0.37;100.00;93750.78;5077745;28;20224;-71
2020/12/04 10:11:01;;;;;;;56.60;21.33;;;;;;;-0.14;100.00;93747.25;5076967;28;20223;-71
2020/12/04 10:13:27;;;;;;;62.17;22.80;;;;;;;-0.06;100.00;93759.28;5077626;28;20207;-71
2020/12/04 10:16:01;;;;;;;48.13;20.93;;;;;;;-0.02;100.00;93765.75;5076482;28;20318;-71
2020/12/04 10:18:28;;;;;;;55.00;20.30;;;;;;;-0.09;100.00;93765.63;5076904;28;20230;-71
2020/12/04 10:20:54;;;;;;;51.03;21.57;;;;;;;-0.04;100.00;93757.34;5077623;28;20207;-72
2020/12/04 10:23:20;;;;;;;50.27;20.40;;;;;;;0.03;100.00;93754.69;5077392;28;20216;-72
2020/12/04 10:25:46;;;;;;;52.63;20.57;;;;;;;0.09;100.00;93743.66;5076131;28;20689;-71
2020/12/04 10:28:12;;;;;;;55.67;21.70;;;;;;;0.16;100.00;93754.91;5076795;28;20226;-71
2020/12/04 10:30:38;;;;;;;56.90;19.30;;;;;;;-0.03;100.00;93740.84;5077756;28;20216;-71
2020/12/04 10:33:05;;;;;;;48.20;20.47;;;;;;;-0.18;100.00;93742.56;5077328;28;20201;-72
2020/12/04 10:35:31;;;;;;;56.57;21.60;;;;;;;-0.35;100.00;93736.72;5075793;28;20862;-71
2020/12/04 10:37:57;;;;;;;52.87;20.70;;;;;;;-0.14;100.00;93746.41;5077352;28;20268;-71
2020/12/04 10:40:23;;;;;;;55.17;20.83;;;;;;;0.04;100.00;93740.78;5077189;28;20287;-71
2020/12/04 10:42:49;;;;;;;54.00;20.47;;;;;;;-0.09;100.00;93749.28;5076634;28;20663;-70
2020/12/04 10:45:15;;;;;;;47.90;19.13;;;;;;;0.03;100.00;93715.88;5076237;28;20210;-71
2020/12/04 10:47:41;;;;;;;59.93;21.90;;;;;;;-0.51;100.00;93692.88;5076503;28;20664;-71
2020/12/04 10:50:08;;;;;;;60.60;22.90;;;;;;;-0.22;100.00;93736.94;5077178;28;20204;-71
2020/12/04 10:52:35;;;;;;;58.77;23.20;;;;;;;-0.09;100.00;93719.03;5076868;28;20207;-71
2020/12/04 10:55:01;;;;;;;71.57;22.70;;;;;;;-0.22;100.00;93718.81;5075446;28;20200;-71
2020/12/04 10:57:27;;;;;;;59.10;21.23;;;;;;;-0.07;100.00;93713.72;5076893;28;20210;-72
2020/12/04 10:59:53;;;;;;;55.27;21.83;;;;;;;0.07;100.00;93724.09;5076460;28;20231;-72
2020/12/04 11:02:25;;;;;;;53.30;21.50;;;;;;;0.00;100.00;93713.63;5077108;28;20210;-71
2020/12/04 11:07:36;;;;;;;57.13;21.77;;;;;;;0.35;100.00;93715.56;5076373;28;20264;-71
2020/12/04 11:10:02;;;;;;;50.63;18.60;;;;;;;0.22;100.00;93681.72;5076828;28;20212;-72
2020/12/04 11:12:28;;;;;;;53.43;20.50;;;;;;;0.12;100.00;93694.09;5077831;28;20196;-72